Time;durP1;ratioP1;P1;durP2;ratioP2;P2;SDS_P1;SDS_P2;PMS_P1;PMS_P2;Temp;Humidity;BMP_temperature;BMP_pressure;BME280_temperature;BME280_humidity;BME280_pressure;Samples;Min_cycle;Max_cycle;Signal;HPM_P1;HPM_P2
2021/09/02 00:00:44;;;;;;;;;;;;;;;19.76;52.82;100721.78;5119474;28;807;-52
2021/09/02 00:03:09;;;;;;;;;;;;;;;19.86;54.89;100723.63;5118985;28;850;-48
2021/09/02 00:05:35;;;;;;;;;;;;;;;20.04;56.36;100731.06;5118991;28;1017;-49
2021/09/02 00:08:00;;;;;;;;;;;;;;;20.50;56.66;100735.88;5119197;28;767;-48
2021/09/02 00:10:25;;;;;;;;;;;;;;;20.43;57.75;100738.22;5118838;28;1910;-52
2021/09/02 00:12:51;;;;;;;;;;;;;;;20.78;57.51;100722.19;5118901;28;1031;-46
2021/09/02 00:15:16;;;;;;;;;;;;;;;20.98;57.56;100725.72;5117917;28;744;-51
2021/09/02 00:17:42;;;;;;;;;;;;;;;21.18;57.44;100725.31;5119105;28;743;-52
2021/09/02 00:20:07;;;;;;;;;;;;;;;21.17;57.91;100726.44;5118890;28;1004;-53
2021/09/02 00:22:33;;;;;;;;;;;;;;;21.50;57.39;100729.13;5118961;28;846;-50
2021/09/02 00:24:58;;;;;;;;;;;;;;;21.42;57.64;100729.00;5118555;28;782;-49
2021/09/02 00:27:24;;;;;;;;;;;;;;;21.18;57.58;100727.25;5118803;28;727;-51
2021/09/02 00:29:49;;;;;;;;;;;;;;;20.91;55.06;100726.09;5118965;28;1970;-50
2021/09/02 00:32:17;;;;;;;;;;;;;;;20.42;53.11;100727.47;5118527;28;747;-52
2021/09/02 00:34:43;;;;;;;;;;;;;;;19.76;51.84;100732.81;5118095;28;982;-50
2021/09/02 00:37:08;;;;;;;;;;;;;;;19.35;50.30;100736.91;5118588;28;786;-48
2021/09/02 00:39:34;;;;;;;;;;;;;;;19.21;48.84;100727.66;5118604;28;683;-50
2021/09/02 00:41:59;;;;;;;;;;;;;;;18.88;48.03;100728.28;5118754;28;748;-52
2021/09/02 00:44:31;;;;;;;;;;;;;;;18.83;48.81;100736.59;5118775;28;735;-50
2021/09/02 00:46:57;;;;;;;;;;;;;;;19.28;50.33;100737.25;5117901;28;767;-50
2021/09/02 00:49:22;;;;;;;;;;;;;;;19.45;52.47;100733.19;5117961;28;1980;-53
2021/09/02 00:51:48;;;;;;;;;;;;;;;19.76;54.04;100736.38;5118440;28;799;-52
2021/09/02 00:54:13;;;;;;;;;;;;;;;19.87;55.54;100736.31;5117919;28;1162;-52
2021/09/02 00:56:38;;;;;;;;;;;;;;;20.01;56.35;100748.22;5118366;28;727;-47
2021/09/02 00:59:04;;;;;;;;;;;;;;;20.32;56.10;100745.03;5118061;28;760;-50
2021/09/02 01:01:29;;;;;;;;;;;;;;;20.34;56.98;100735.31;5117602;28;752;-53
2021/09/02 01:03:55;;;;;;;;;;;;;;;20.39;57.50;100739.13;5118264;28;851;-49
2021/09/02 01:06:20;;;;;;;;;;;;;;;20.68;56.97;100738.94;5118004;28;961;-48
2021/09/02 01:08:46;;;;;;;;;;;;;;;20.84;56.75;100731.19;5099232;28;1976;-52
2021/09/02 01:11:12;;;;;;;;;;;;;;;20.75;57.46;100733.84;5118083;28;1149;-46
2021/09/02 01:13:37;;;;;;;;;;;;;;;20.80;57.69;100744.81;5118064;28;827;-51
2021/09/02 01:16:03;;;;;;;;;;;;;;;20.98;57.54;100736.75;5117190;28;862;-52
2021/09/02 01:18:28;;;;;;;;;;;;;;;20.98;57.70;100742.28;5118597;28;750;-51
2021/09/02 01:20:53;;;;;;;;;;;;;;;20.90;56.95;100751.28;5117722;28;1010;-53
2021/09/02 01:23:19;;;;;;;;;;;;;;;20.12;55.05;100749.72;5117371;28;759;-46
2021/09/02 01:25:45;;;;;;;;;;;;;;;19.75;52.11;100751.28;5117183;28;1031;-53
2021/09/02 01:28:11;;;;;;;;;;;;;;;19.07;49.84;100750.44;5117701;28;810;-46
2021/09/02 01:30:37;;;;;;;;;;;;;;;18.95;47.29;100744.47;5117375;28;1942;-49
2021/09/02 01:33:02;;;;;;;;;;;;;;;18.71;47.35;100745.22;5117984;28;813;-45
2021/09/02 01:35:31;;;;;;;;;;;;;;;18.96;50.29;100760.72;5117097;28;954;-52
2021/09/02 01:37:58;;;;;;;;;;;;;;;19.42;53.00;100755.81;5116919;28;858;-46
2021/09/02 01:40:25;;;;;;;;;;;;;;;19.65;55.10;100763.28;5117577;28;743;-53
2021/09/02 01:42:50;;;;;;;;;;;;;;;19.95;56.32;100760.44;5117384;28;775;-47
2021/09/02 01:45:16;;;;;;;;;;;;;;;20.13;57.28;100759.66;5117028;28;802;-53
2021/09/02 01:47:42;;;;;;;;;;;;;;;20.32;57.77;100762.41;5099126;28;755;-45
2021/09/02 01:50:07;;;;;;;;;;;;;;;20.51;58.05;100754.09;5117121;28;1922;-53
2021/09/02 01:52:33;;;;;;;;;;;;;;;20.67;58.09;100762.13;5116505;28;863;-49
2021/09/02 01:54:58;;;;;;;;;;;;;;;20.91;58.08;100758.47;5117118;28;1198;-45
2021/09/02 01:57:24;;;;;;;;;;;;;;;21.18;57.40;100758.50;5117011;28;973;-45
2021/09/02 01:59:49;;;;;;;;;;;;;;;21.09;58.21;100759.53;5117068;28;755;-52
2021/09/02 02:02:15;;;;;;;;;;;;;;;21.13;56.88;100755.81;5117178;28;771;-48
2021/09/02 02:04:40;;;;;;;;;;;;;;;20.70;54.82;100750.50;5116328;28;978;-51
2021/09/02 02:07:05;;;;;;;;;;;;;;;20.13;52.30;100756.91;5116539;28;839;-53
2021/09/02 02:09:31;;;;;;;;;;;;;;;19.55;49.58;100751.56;5116878;28;1914;-45
2021/09/02 02:11:56;;;;;;;;;;;;;;;18.94;47.91;100753.84;5116638;28;1030;-54
2021/09/02 02:14:22;;;;;;;;;;;;;;;18.72;45.67;100757.03;5116991;28;814;-49
2021/09/02 02:16:47;;;;;;;;;;;;;;;18.74;46.11;100760.34;5116462;28;865;-54
2021/09/02 02:19:13;;;;;;;;;;;;;;;18.90;49.71;100752.78;5116413;28;1025;-53
2021/09/02 02:21:38;;;;;;;;;;;;;;;19.38;52.51;100766.63;5117046;28;818;-52
2021/09/02 02:24:04;;;;;;;;;;;;;;;19.77;54.04;100765.63;5116513;28;791;-50
2021/09/02 02:26:29;;;;;;;;;;;;;;;19.95;55.74;100768.72;5116648;28;882;-50
2021/09/02 02:28:55;;;;;;;;;;;;;;;20.03;57.10;100770.81;5116721;28;1972;-52
2021/09/02 02:31:20;;;;;;;;;;;;;;;20.18;57.96;100772.56;5116299;28;802;-49
2021/09/02 02:33:45;;;;;;;;;;;;;;;20.62;57.52;100774.09;5116793;28;742;-45
2021/09/02 02:36:14;;;;;;;;;;;;;;;20.71;58.07;100776.22;5116360;28;1154;-45
2021/09/02 02:38:42;;;;;;;;;;;;;;;20.72;58.53;100775.91;5120349;28;778;-47
2021/09/02 02:41:11;;;;;;;;;;;;;;;21.15;57.47;100781.25;5123375;28;751;-54
2021/09/02 02:43:43;;;;;;;;;;;;;;;21.44;57.20;100779.31;5123287;28;735;-51
2021/09/02 02:46:08;;;;;;;;;;;;;;;21.27;58.00;100783.50;5122775;28;819;-50
2021/09/02 02:48:33;;;;;;;;;;;;;;;21.16;57.36;100782.88;5123172;28;1977;-53
2021/09/02 02:50:59;;;;;;;;;;;;;;;20.68;55.60;100788.69;5123169;28;966;-50
2021/09/02 02:53:27;;;;;;;;;;;;;;;20.16;52.82;100789.41;5122820;28;1122;-50
2021/09/02 02:55:53;;;;;;;;;;;;;;;19.64;50.39;100788.41;5123022;28;787;-49
2021/09/02 02:58:18;;;;;;;;;;;;;;;19.14;48.57;100789.50;5123225;28;786;-46
2021/09/02 03:00:44;;;;;;;;;;;;;;;18.68;47.26;100802.78;5122727;28;795;-51
2021/09/02 03:03:09;;;;;;;;;;;;;;;18.75;48.01;100790.34;5123302;28;782;-48
2021/09/02 03:05:34;;;;;;;;;;;;;;;19.13;51.64;100795.28;5122871;28;962;-52
2021/09/02 03:08:00;;;;;;;;;;;;;;;19.54;53.82;100807.84;5122564;28;836;-52
2021/09/02 03:10:25;;;;;;;;;;;;;;;19.75;55.78;100812.00;5123535;28;1972;-52
2021/09/02 03:12:51;;;;;;;;;;;;;;;19.92;57.14;100807.97;5123044;28;1003;-45
2021/09/02 03:15:16;;;;;;;;;;;;;;;20.14;57.84;100816.50;5122585;28;787;-53
2021/09/02 03:17:42;;;;;;;;;;;;;;;20.48;57.78;100818.25;5122984;28;839;-46
2021/09/02 03:20:07;;;;;;;;;;;;;;;20.68;57.84;100821.84;5123162;28;1005;-56
2021/09/02 03:22:33;;;;;;;;;;;;;;;20.80;58.14;100821.38;5122424;28;810;-54
2021/09/02 03:24:58;;;;;;;;;;;;;;;21.08;57.65;100830.56;5122998;28;810;-51
2021/09/02 03:27:24;;;;;;;;;;;;;;;21.05;57.96;100825.66;5123142;28;751;-46
2021/09/02 03:29:49;;;;;;;;;;;;;;;20.95;58.73;100820.31;5122540;28;1898;-47
2021/09/02 03:32:15;;;;;;;;;;;;;;;21.19;58.20;100831.22;5123032;28;759;-46
2021/09/02 03:34:40;;;;;;;;;;;;;;;21.04;57.95;100829.53;5122251;28;989;-47
2021/09/02 03:37:06;;;;;;;;;;;;;;;20.82;56.66;100822.72;5122597;28;763;-45
2021/09/02 03:39:32;;;;;;;;;;;;;;;20.49;54.30;100822.63;5122999;28;743;-47
2021/09/02 03:41:57;;;;;;;;;;;;;;;19.85;51.80;100822.09;5122781;28;795;-48
2021/09/02 03:44:23;;;;;;;;;;;;;;;19.47;49.04;100821.97;5122479;28;755;-52
2021/09/02 03:46:48;;;;;;;;;;;;;;;19.17;47.21;100818.41;5122662;28;901;-47
2021/09/02 03:49:14;;;;;;;;;;;;;;;18.79;47.63;100818.97;5120415;28;1913;-50
2021/09/02 03:51:45;;;;;;;;;;;;;;;19.12;50.42;100822.03;5119168;28;835;-47
2021/09/02 03:54:11;;;;;;;;;;;;;;;19.89;52.76;100822.34;5119348;28;1103;-46
2021/09/02 03:56:36;;;;;;;;;;;;;;;20.14;54.32;100819.25;5119740;28;855;-46
2021/09/02 03:59:02;;;;;;;;;;;;;;;19.97;56.59;100824.47;5112067;28;1368;-45
2021/09/02 04:01:27;;;;;;;;;;;;;;;20.17;57.69;100826.97;5119491;28;830;-47
2021/09/02 04:03:53;;;;;;;;;;;;;;;20.40;57.88;100827.19;5119255;28;827;-49
2021/09/02 04:06:18;;;;;;;;;;;;;;;20.35;58.83;100825.31;5119027;28;1017;-48
2021/09/02 04:08:44;;;;;;;;;;;;;;;20.85;57.72;100822.09;5118851;28;1909;-46
2021/09/02 04:11:09;;;;;;;;;;;;;;;20.80;58.25;100824.13;5119552;28;1125;-48
2021/09/02 04:13:35;;;;;;;;;;;;;;;21.31;57.19;100823.25;5118756;28;779;-45
2021/09/02 04:16:01;;;;;;;;;;;;;;;21.44;56.68;100829.13;5118949;28;790;-50
2021/09/02 04:18:26;;;;;;;;;;;;;;;20.97;57.96;100824.41;5119255;28;758;-45
2021/09/02 04:20:53;;;;;;;;;;;;;;;20.39;57.46;100821.97;5118287;28;962;-48
2021/09/02 04:23:21;;;;;;;;;;;;;;;20.24;55.00;100811.97;5118906;28;758;-45
2021/09/02 04:25:47;;;;;;;;;;;;;;;20.34;50.40;100817.31;5119118;28;790;-53
2021/09/02 04:28:12;;;;;;;;;;;;;;;19.17;49.93;100812.06;5118597;28;747;-46
2021/09/02 04:30:38;;;;;;;;;;;;;;;18.97;47.89;100811.13;5118514;28;1984;-50
2021/09/02 04:33:06;;;;;;;;;;;;;;;18.56;47.91;100806.75;5119196;28;750;-46
2021/09/02 04:35:32;;;;;;;;;;;;;;;18.85;47.96;100811.50;5118013;28;958;-50
2021/09/02 04:37:57;;;;;;;;;;;;;;;18.96;52.39;100812.25;5118476;28;819;-51
2021/09/02 04:40:22;;;;;;;;;;;;;;;19.53;54.26;100807.03;5100824;28;771;-50
2021/09/02 04:42:48;;;;;;;;;;;;;;;19.64;56.43;100808.56;5118527;28;807;-46
2021/09/02 04:45:13;;;;;;;;;;;;;;;20.13;56.55;100814.88;5118550;28;787;-47
2021/09/02 04:47:39;;;;;;;;;;;;;;;20.41;57.15;100823.31;5118653;28;854;-47
2021/09/02 04:50:05;;;;;;;;;;;;;;;20.34;58.32;100836.66;5117753;28;1909;-48
2021/09/02 04:52:30;;;;;;;;;;;;;;;20.68;58.24;100836.47;5118296;28;870;-48
2021/09/02 04:54:56;;;;;;;;;;;;;;;20.96;57.97;100844.06;5118305;28;1111;-51
2021/09/02 04:57:21;;;;;;;;;;;;;;;21.01;58.12;100842.03;5117838;28;858;-52
2021/09/02 04:59:50;;;;;;;;;;;;;;;21.11;58.16;100840.19;5118231;28;858;-49
2021/09/02 05:02:15;;;;;;;;;;;;;;;21.26;57.56;100841.88;5117894;28;807;-49
2021/09/02 05:04:41;;;;;;;;;;;;;;;20.71;56.81;100854.41;5117050;28;989;-53
2021/09/02 05:07:06;;;;;;;;;;;;;;;20.17;55.62;100846.28;5118336;28;774;-48
2021/09/02 05:09:35;;;;;;;;;;;;;;;19.67;52.93;100848.53;5118032;28;2236;-48
2021/09/02 05:12:00;;;;;;;;;;;;;;;19.22;50.56;100854.19;5117475;28;1135;-53
2021/09/02 05:14:26;;;;;;;;;;;;;;;18.59;49.03;100869.53;5118599;28;759;-47
2021/09/02 05:16:54;;;;;;;;;;;;;;;18.58;48.12;100867.03;5117685;28;742;-50
2021/09/02 05:19:20;;;;;;;;;;;;;;;18.61;49.55;100878.31;5117636;28;966;-49
2021/09/02 05:21:45;;;;;;;;;;;;;;;18.93;52.33;100879.78;5117552;28;822;-57
2021/09/02 05:24:13;;;;;;;;;;;;;;;19.24;54.34;100885.06;5117753;28;747;-48
2021/09/02 05:26:38;;;;;;;;;;;;;;;19.58;56.28;100881.41;5117876;28;855;-48
2021/09/02 05:29:03;;;;;;;;;;;;;;;19.67;57.69;100887.16;5116980;28;1980;-52
2021/09/02 05:31:29;;;;;;;;;;;;;;;20.03;57.84;100886.75;5117754;28;747;-45
2021/09/02 05:33:54;;;;;;;;;;;;;;;20.26;58.38;100884.25;5117579;28;838;-49
2021/09/02 05:36:20;;;;;;;;;;;;;;;20.54;58.44;100888.03;5117250;28;1009;-54
2021/09/02 05:38:45;;;;;;;;;;;;;;;20.58;58.61;100896.53;5117460;28;735;-49
2021/09/02 05:41:14;;;;;;;;;;;;;;;20.87;58.38;100890.09;5117806;28;775;-48
2021/09/02 05:43:39;;;;;;;;;;;;;;;20.90;58.51;100903.28;5116907;28;861;-50
2021/09/02 05:46:04;;;;;;;;;;;;;;;20.95;58.45;100897.69;5117361;28;790;-48
2021/09/02 05:48:30;;;;;;;;;;;;;;;20.44;57.36;100896.44;5117472;28;735;-50
2021/09/02 05:50:55;;;;;;;;;;;;;;;19.94;54.92;100902.34;5116841;28;1976;-47
2021/09/02 05:53:21;;;;;;;;;;;;;;;19.43;52.36;100896.19;5117292;28;1134;-45
2021/09/02 05:55:48;;;;;;;;;;;;;;;18.94;50.38;100902.66;5117027;28;845;-48
2021/09/02 05:58:14;;;;;;;;;;;;;;;18.49;48.99;100896.28;5116496;28;1129;-48
2021/09/02 06:00:39;;;;;;;;;;;;;;;18.50;47.68;100897.94;5116863;28;807;-45
2021/09/02 06:03:05;;;;;;;;;;;;;;;18.64;49.95;100898.97;5116866;28;802;-48
2021/09/02 06:05:30;;;;;;;;;;;;;;;18.94;53.88;100894.38;5116033;28;950;-47
2021/09/02 06:07:55;;;;;;;;;;;;;;;19.35;55.48;100887.72;5117236;28;1022;-48
2021/09/02 06:10:23;;;;;;;;;;;;;;;19.46;57.44;100892.84;5117327;28;1972;-46
2021/09/02 06:12:48;;;;;;;;;;;;;;;19.79;57.97;100895.84;5115454;28;993;-47
2021/09/02 06:15:14;;;;;;;;;;;;;;;19.93;58.94;100895.16;5117014;28;866;-46
2021/09/02 06:17:39;;;;;;;;;;;;;;;20.18;58.91;100903.13;5117275;28;767;-52
2021/09/02 06:20:05;;;;;;;;;;;;;;;20.34;59.17;100905.69;5115566;28;1272;-56
2021/09/02 06:22:31;;;;;;;;;;;;;;;20.49;59.18;100899.16;5116255;28;1209;-51
2021/09/02 06:24:56;;;;;;;;;;;;;;;20.59;59.25;100895.44;5116326;28;1332;-47
2021/09/02 06:27:22;;;;;;;;;;;;;;;20.77;59.19;100902.13;5116184;28;1272;-50
2021/09/02 06:29:47;;;;;;;;;;;;;;;20.93;58.81;100899.94;5116784;28;1909;-48
2021/09/02 06:32:12;;;;;;;;;;;;;;;20.59;59.31;100895.44;5116554;28;755;-48
2021/09/02 06:34:38;;;;;;;;;;;;;;;20.35;57.41;100901.81;5115837;28;923;-49
2021/09/02 06:37:03;;;;;;;;;;;;;;;19.81;55.51;100893.63;5116787;28;823;-48
2021/09/02 06:39:29;;;;;;;;;;;;;;;19.40;52.69;100896.75;5098367;28;1256;-56
2021/09/02 06:41:54;;;;;;;;;;;;;;;18.89;50.55;100889.75;5116114;28;870;-46
2021/09/02 06:44:20;;;;;;;;;;;;;;;18.62;49.09;100891.00;5116672;28;822;-49
2021/09/02 06:46:45;;;;;;;;;;;;;;;18.36;48.18;100890.28;5115976;28;957;-46
2021/09/02 06:49:11;;;;;;;;;;;;;;;18.67;50.43;100897.56;5116015;28;1906;-46
2021/09/02 06:51:37;;;;;;;;;;;;;;;19.08;54.01;100895.41;5095999;28;1534;-46
2021/09/02 06:54:03;;;;;;;;;;;;;;;19.48;56.12;100898.06;5105228;28;1131;-46
2021/09/02 06:56:28;;;;;;;;;;;;;;;19.59;57.90;100896.06;5097489;28;876;-47
2021/09/02 06:58:54;;;;;;;;;;;;;;;20.04;58.12;100891.16;5116309;28;734;-46
2021/09/02 07:01:19;;;;;;;;;;;;;;;20.21;58.74;100895.38;5116447;28;770;-55
2021/09/02 07:03:45;;;;;;;;;;;;;;;20.33;59.24;100893.03;5115177;28;1372;-45
2021/09/02 07:06:10;;;;;;;;;;;;;;;20.54;59.02;100895.50;5112542;28;962;-46
2021/09/02 07:08:36;;;;;;;;;;;;;;;20.42;59.83;100904.22;5115997;28;839;-54
2021/09/02 07:11:02;;;;;;;;;;;;;;;20.57;59.86;100898.50;5097531;28;1976;-47
2021/09/02 07:13:28;;;;;;;;;;;;;;;20.69;59.81;100900.84;5095285;28;1035;-48
2021/09/02 07:15:53;;;;;;;;;;;;;;;20.75;59.19;100896.06;5111957;28;1032;-47
2021/09/02 07:18:19;;;;;;;;;;;;;;;20.31;57.64;100892.47;5116208;28;866;-47
2021/09/02 07:20:44;;;;;;;;;;;;;;;19.89;55.39;100896.88;5114588;28;837;-48
2021/09/02 07:23:10;;;;;;;;;;;;;;;19.45;53.08;100901.41;5115735;28;823;-52
2021/09/02 07:25:35;;;;;;;;;;;;;;;19.03;51.08;100895.44;5118485;28;803;-47
2021/09/02 07:28:00;;;;;;;;;;;;;;;18.71;49.08;100893.97;5116448;28;763;-48
2021/09/02 07:30:26;;;;;;;;;;;;;;;18.35;48.33;100890.59;5099485;28;1967;-59
2021/09/02 07:32:51;;;;;;;;;;;;;;;18.69;51.15;100895.34;5098985;28;736;-54
2021/09/02 07:35:17;;;;;;;;;;;;;;;19.17;54.60;100895.59;5108352;28;966;-52
2021/09/02 07:37:42;;;;;;;;;;;;;;;19.42;56.44;100900.06;5119899;28;882;-46
2021/09/02 07:40:08;;;;;;;;;;;;;;;19.70;57.96;100903.09;5117511;28;847;-45
2021/09/02 07:42:33;;;;;;;;;;;;;;;19.99;58.68;100902.25;5119722;28;882;-49
2021/09/02 07:45:00;;;;;;;;;;;;;;;20.21;58.90;100906.44;5119728;28;836;-44
2021/09/02 07:47:26;;;;;;;;;;;;;;;20.45;59.02;100901.69;5119348;28;831;-46
2021/09/02 07:49:51;;;;;;;;;;;;;;;20.47;59.19;100902.22;5119220;28;1970;-45
2021/09/02 07:52:17;;;;;;;;;;;;;;;20.60;59.27;100903.41;5117477;28;831;-50
2021/09/02 07:54:42;;;;;;;;;;;;;;;20.72;58.95;100894.72;5119358;28;1110;-45
2021/09/02 07:57:08;;;;;;;;;;;;;;;21.03;57.71;100894.25;5119052;28;850;-48
2021/09/02 07:59:33;;;;;;;;;;;;;;;20.50;57.39;100887.00;5106361;28;1098;-45
2021/09/02 08:01:58;;;;;;;;;;;;;;;20.05;55.38;100887.28;5102902;28;1100;-47
2021/09/02 08:04:25;;;;;;;;;;;;;;;19.41;53.67;100892.91;5118026;28;982;-52
2021/09/02 08:06:50;;;;;;;;;;;;;;;19.00;51.27;100884.97;5119412;28;823;-48
2021/09/02 08:09:16;;;;;;;;;;;;;;;18.78;49.82;100886.19;5100742;28;1986;-44
2021/09/02 08:11:41;;;;;;;;;;;;;;;18.66;48.12;100885.72;5118620;28;1000;-45
2021/09/02 08:14:07;;;;;;;;;;;;;;;18.44;48.07;100875.94;5119054;28;779;-48
2021/09/02 08:16:32;;;;;;;;;;;;;;;18.75;51.14;100889.53;5118924;28;823;-47
2021/09/02 08:18:58;;;;;;;;;;;;;;;19.08;54.32;100892.63;5118808;28;786;-46
2021/09/02 08:21:24;;;;;;;;;;;;;;;19.41;56.15;100889.31;5118711;28;954;-47
2021/09/02 08:23:49;;;;;;;;;;;;;;;19.65;57.38;100884.66;5118385;28;797;-46
2021/09/02 08:26:15;;;;;;;;;;;;;;;19.81;58.50;100879.84;5118453;28;870;-49
2021/09/02 08:28:40;;;;;;;;;;;;;;;20.12;58.61;100882.25;5118685;28;825;-47
2021/09/02 08:31:06;;;;;;;;;;;;;;;20.41;58.46;100883.25;5118587;28;1906;-47
2021/09/02 08:33:31;;;;;;;;;;;;;;;20.52;58.89;100891.09;5118076;28;824;-46
2021/09/02 08:35:57;;;;;;;;;;;;;;;20.61;58.71;100882.16;5108649;28;1145;-46
2021/09/02 08:38:22;;;;;;;;;;;;;;;20.87;58.64;100879.03;5113111;28;922;-47
2021/09/02 08:40:47;;;;;;;;;;;;;;;20.81;58.87;100873.56;5118660;28;806;-55
2021/09/02 08:43:13;;;;;;;;;;;;;;;20.79;58.68;100878.59;5116197;28;1103;-44
2021/09/02 08:45:38;;;;;;;;;;;;;;;20.24;57.35;100869.94;5105496;28;1042;-57
2021/09/02 08:48:04;;;;;;;;;;;;;;;19.81;54.88;100870.72;5118812;28;818;-48
2021/09/02 08:50:31;;;;;;;;;;;;;;;19.44;52.10;100877.72;5100051;28;2011;-56
2021/09/02 08:52:56;;;;;;;;;;;;;;;19.07;50.28;100870.84;5117848;28;854;-48
2021/09/02 08:55:23;;;;;;;;;;;;;;;18.81;48.11;100871.03;5118417;28;763;-56
2021/09/02 08:57:48;;;;;;;;;;;;;;;18.40;47.31;100860.28;5118504;28;865;-48
2021/09/02 09:00:14;;;;;;;;;;;;;;;18.41;48.12;100879.28;5117307;28;902;-51
2021/09/02 09:02:42;;;;;;;;;;;;;;;18.88;52.85;100873.50;5118395;28;1138;-51
2021/09/02 09:05:08;;;;;;;;;;;;;;;19.38;54.97;100876.13;5117896;28;755;-50
2021/09/02 09:07:35;;;;;;;;;;;;;;;19.60;57.17;100870.94;5118037;28;763;-50
2021/09/02 09:10:01;;;;;;;;;;;;;;;19.88;57.94;100873.13;5117996;28;1973;-46
2021/09/02 09:12:33;;;;;;;;;;;;;;;20.15;58.17;100876.13;5117824;28;1006;-47
2021/09/02 09:14:58;;;;;;;;;;;;;;;20.33;58.79;100879.22;5117415;28;931;-48
2021/09/02 09:17:24;;;;;;;;;;;;;;;20.50;58.72;100864.91;5118152;28;900;-48
2021/09/02 09:19:50;;;;;;;;;;;;;;;20.65;58.76;100875.72;5118130;28;767;-51
2021/09/02 09:22:15;;;;;;;;;;;;;;;20.77;58.83;100869.75;5117557;28;894;-48
2021/09/02 09:24:42;;;;;;;;;;;;;;;21.01;58.50;100866.06;5117535;28;818;-49
2021/09/02 09:27:08;;;;;;;;;;;;;;;20.98;58.30;100855.63;5117452;28;859;-46
2021/09/02 09:29:33;;;;;;;;;;;;;;;20.65;57.07;100863.84;5117571;28;1914;-54
2021/09/02 09:32:02;;;;;;;;;;;;;;;19.96;56.38;100858.69;5117751;28;786;-52
2021/09/02 09:34:28;;;;;;;;;;;;;;;19.78;54.33;100860.25;5099603;28;1704;-47
2021/09/02 09:37:05;;;;;;;;;;;;;;;19.29;53.21;100862.13;5117099;28;751;-47
2021/09/02 09:39:30;;;;;;;;;;;;;;;19.19;51.69;100862.22;5099312;28;1194;-47
2021/09/02 09:41:55;;;;;;;;;;;;;;;18.89;50.92;100855.88;5099322;28;1377;-54
2021/09/02 09:44:22;;;;;;;;;;;;;;;18.66;50.42;100858.16;5098539;28;1455;-50
2021/09/02 09:47:11;;;;;;;;;;;;;;;18.53;50.58;100865.16;5117123;28;750;-55
2021/09/02 09:49:45;;;;;;;;;;;;;;;18.77;50.63;100864.44;5103355;28;1905;-58
2021/09/02 09:52:24;;;;;;;;;;;;;;;19.05;52.54;100870.34;5102773;28;831;-48
2021/09/02 09:54:50;;;;;;;;;;;;;;;19.20;55.19;100866.63;5108121;28;850;-50
2021/09/02 09:57:15;;;;;;;;;;;;;;;19.57;56.43;100866.00;5117200;28;819;-52
2021/09/02 09:59:41;;;;;;;;;;;;;;;19.93;57.11;100865.63;5116593;28;1005;-50
2021/09/02 10:02:07;;;;;;;;;;;;;;;20.09;58.16;100863.50;5117114;28;881;-56
2021/09/02 10:04:32;;;;;;;;;;;;;;;20.16;58.90;100872.25;5117009;28;798;-49
2021/09/02 10:06:58;;;;;;;;;;;;;;;20.29;59.55;100872.66;5116510;28;766;-50
2021/09/02 10:09:23;;;;;;;;;;;;;;;20.64;58.94;100871.31;5116765;28;1982;-46
2021/09/02 10:11:49;;;;;;;;;;;;;;;20.56;59.40;100874.75;5098304;28;1042;-47
2021/09/02 10:14:14;;;;;;;;;;;;;;;20.82;58.46;100875.22;5115987;28;970;-49
2021/09/02 10:16:40;;;;;;;;;;;;;;;20.13;57.71;100878.38;5116537;28;742;-50
2021/09/02 10:19:05;;;;;;;;;;;;;;;19.77;55.16;100866.91;5117056;28;819;-50
2021/09/02 10:21:31;;;;;;;;;;;;;;;19.43;52.61;100874.13;5116301;28;806;-46
2021/09/02 10:24:16;;;;;;;;;;;;;;;18.98;50.95;100871.50;5098013;28;793;-51
2021/09/02 10:26:42;;;;;;;;;;;;;;;18.63;49.17;100872.53;5116578;28;1396;-53
2021/09/02 10:29:43;;;;;;;;;;;;;;;18.44;49.22;100870.44;5097268;28;1984;-55
2021/09/02 10:32:28;;;;;;;;;;;;;;;18.54;51.16;100871.50;5014543;28;1340;-59
2021/09/02 10:34:55;;;;;;;;;;;;;;;19.05;54.18;100876.66;5108629;28;1221;-52
2021/09/02 10:37:36;;;;;;;;;;;;;;;19.47;55.87;100869.69;5116634;28;901;-54
2021/09/02 10:40:02;;;;;;;;;;;;;;;19.71;57.49;100874.38;5116827;28;1273;-54
2021/09/02 10:42:43;;;;;;;;;;;;;;;20.20;57.45;100882.69;5097758;28;1415;-54
2021/09/02 10:45:27;;;;;;;;;;;;;;;20.26;58.59;100878.75;5116701;28;962;-55
2021/09/02 10:47:53;;;;;;;;;;;;;;;20.46;58.63;100875.72;5116444;28;754;-53
2021/09/02 10:50:22;;;;;;;;;;;;;;;20.60;58.98;100874.97;5116190;28;1980;-55
2021/09/02 10:52:47;;;;;;;;;;;;;;;20.73;58.79;100871.47;5116719;28;818;-51
2021/09/02 10:55:26;;;;;;;;;;;;;;;20.27;58.07;100872.09;5116222;28;802;-50
2021/09/02 10:57:52;;;;;;;;;;;;;;;19.78;55.82;100883.16;5116047;28;823;-50
2021/09/02 11:00:36;;;;;;;;;;;;;;;19.26;53.40;100868.22;5119212;28;966;-53
2021/09/02 11:03:11;;;;;;;;;;;;;;;19.08;50.73;100876.09;5120782;28;739;-53
2021/09/02 11:05:36;;;;;;;;;;;;;;;18.58;49.14;100869.78;5120614;28;779;-54
2021/09/02 11:08:01;;;;;;;;;;;;;;;18.06;48.92;100878.31;5102059;28;811;-55
2021/09/02 11:10:27;;;;;;;;;;;;;;;18.32;50.30;100880.16;5102643;28;1978;-56
2021/09/02 11:13:00;;;;;;;;;;;;;;;18.80;53.59;100875.72;5120051;28;1070;-51
2021/09/02 11:15:25;;;;;;;;;;;;;;;19.15;56.45;100884.88;5120097;28;1032;-57
2021/09/02 11:17:52;;;;;;;;;;;;;;;19.56;57.44;100875.38;5120541;28;806;-51
2021/09/02 11:20:18;;;;;;;;;;;;;;;19.92;57.81;100888.00;5120029;28;778;-55
2021/09/02 11:22:44;;;;;;;;;;;;;;;20.17;58.25;100892.38;5120519;28;878;-53
2021/09/02 11:25:10;;;;;;;;;;;;;;;20.34;58.57;100889.13;5120126;28;791;-56
2021/09/02 11:27:35;;;;;;;;;;;;;;;20.59;58.39;100895.44;5119711;28;776;-48
2021/09/02 11:30:19;;;;;;;;;;;;;;;20.59;58.88;100904.53;5119660;28;1918;-45
2021/09/02 11:32:50;;;;;;;;;;;;;;;20.73;58.77;100901.88;5120446;28;770;-48
2021/09/02 11:35:16;;;;;;;;;;;;;;;20.94;58.47;100896.06;5119505;28;807;-54
2021/09/02 11:37:42;;;;;;;;;;;;;;;21.05;58.29;100896.72;5119940;28;787;-54
2021/09/02 11:40:08;;;;;;;;;;;;;;;20.67;58.56;100903.06;5120036;28;1182;-55
2021/09/02 11:42:33;;;;;;;;;;;;;;;20.23;56.62;100893.13;5119826;28;805;-49
2021/09/02 11:44:59;;;;;;;;;;;;;;;19.75;55.50;100897.50;5119637;28;997;-49
2021/09/02 11:47:24;;;;;;;;;;;;;;;19.41;53.78;100894.84;5119677;28;875;-53
2021/09/02 11:49:53;;;;;;;;;;;;;;;19.26;51.92;100891.09;5101287;28;1964;-53
2021/09/02 11:52:18;;;;;;;;;;;;;;;19.03;50.85;100889.91;5101387;28;1200;-50
2021/09/02 11:54:44;;;;;;;;;;;;;;;18.78;50.55;100890.88;5119694;28;803;-47
2021/09/02 11:57:09;;;;;;;;;;;;;;;18.61;50.94;100891.28;5119290;28;823;-53
2021/09/02 11:59:47;;;;;;;;;;;;;;;19.24;52.14;100901.59;5118787;28;997;-52
2021/09/02 12:02:12;;;;;;;;;;;;;;;19.53;54.90;100902.72;5119586;28;925;-54
2021/09/02 12:04:38;;;;;;;;;;;;;;;19.71;56.82;100904.72;5119313;28;759;-51
2021/09/02 12:07:03;;;;;;;;;;;;;;;20.24;56.61;100909.41;5100969;28;985;-57
2021/09/02 12:09:33;;;;;;;;;;;;;;;20.29;57.90;100906.59;5094228;28;1905;-55
2021/09/02 12:11:58;;;;;;;;;;;;;;;20.40;58.47;100904.53;5103945;28;1134;-56
2021/09/02 12:14:27;;;;;;;;;;;;;;;20.43;59.09;100914.16;5108753;28;998;-52
2021/09/02 12:17:13;;;;;;;;;;;;;;;20.69;58.67;100911.88;5119322;28;771;-51
2021/09/02 12:19:57;;;;;;;;;;;;;;;20.51;58.82;100905.22;5118140;28;1499;-50
2021/09/02 12:22:25;;;;;;;;;;;;;;;20.16;57.22;100899.84;5119286;28;870;-52
2021/09/02 12:24:50;;;;;;;;;;;;;;;19.73;55.15;100899.75;5119032;28;827;-49
2021/09/02 12:27:16;;;;;;;;;;;;;;;19.46;52.95;100900.28;5118924;28;835;-50
2021/09/02 12:29:45;;;;;;;;;;;;;;;19.03;50.89;100895.44;5118703;28;1979;-50
2021/09/02 12:32:13;;;;;;;;;;;;;;;18.56;50.01;100902.31;5118984;28;869;-56
2021/09/02 12:34:38;;;;;;;;;;;;;;;18.24;49.21;100911.81;5118382;28;770;-57
2021/09/02 12:37:04;;;;;;;;;;;;;;;18.41;49.05;100906.81;5119003;28;755;-57
2021/09/02 12:39:30;;;;;;;;;;;;;;;18.61;51.53;100913.31;5118280;28;976;-57
2021/09/02 12:42:00;;;;;;;;;;;;;;;19.18;53.85;100912.94;5118493;28;818;-57
2021/09/02 12:44:25;;;;;;;;;;;;;;;19.66;55.42;100913.06;5118363;28;1044;-48
2021/09/02 12:47:12;;;;;;;;;;;;;;;19.69;57.13;100911.69;5112371;28;1392;-55
2021/09/02 12:49:37;;;;;;;;;;;;;;;19.81;58.45;100912.94;5097666;28;1969;-46